createdAt,value
2017-12-17T00:00:34.598Z,0
2017-12-17T00:01:15.171Z,0
2017-12-17T00:01:55.731Z,0
2017-12-17T00:02:36.326Z,0
2017-12-17T00:03:16.918Z,0
2017-12-17T00:03:57.488Z,0
2017-12-17T00:04:38.061Z,0
2017-12-17T00:05:18.618Z,0
2017-12-17T00:05:59.181Z,0
2017-12-17T00:06:39.742Z,0
2017-12-17T00:07:20.319Z,0
2017-12-17T00:08:00.887Z,0
2017-12-17T00:08:41.446Z,0
2017-12-17T00:09:22.017Z,0
2017-12-17T00:10:02.567Z,0
2017-12-17T00:10:43.137Z,0
2017-12-17T00:11:23.697Z,0
2017-12-17T00:12:04.285Z,0
2017-12-17T00:12:44.850Z,0
2017-12-17T00:13:25.422Z,0
2017-12-17T00:14:05.981Z,0
2017-12-17T00:14:46.588Z,0
2017-12-17T00:15:27.157Z,0
2017-12-17T00:16:07.758Z,0
2017-12-17T00:16:48.342Z,0
2017-12-17T00:17:29.100Z,0
2017-12-17T00:18:09.670Z,0
2017-12-17T00:18:50.222Z,0
2017-12-17T00:19:30.784Z,0
2017-12-17T00:20:11.344Z,0
2017-12-17T00:20:51.922Z,0
2017-12-17T00:21:32.483Z,0
2017-12-17T00:22:13.052Z,0
2017-12-17T00:22:53.623Z,0
2017-12-17T00:23:34.263Z,0
2017-12-17T00:24:14.832Z,0
2017-12-17T00:24:55.382Z,0
2017-12-17T00:25:35.958Z,0
2017-12-17T00:26:16.522Z,0
2017-12-17T00:26:57.101Z,0
2017-12-17T00:27:37.680Z,0
2017-12-17T00:28:18.301Z,0
2017-12-17T00:28:58.837Z,0
2017-12-17T00:29:39.409Z,0
2017-12-17T00:30:19.965Z,0
2017-12-17T00:31:00.523Z,0
2017-12-17T00:31:41.098Z,0
2017-12-17T00:32:21.672Z,0
2017-12-17T00:33:02.236Z,0
2017-12-17T00:33:42.807Z,0
2017-12-17T00:34:23.441Z,0
2017-12-17T00:35:04.022Z,0
2017-12-17T00:35:44.592Z,0
2017-12-17T00:36:25.174Z,0
2017-12-17T00:37:05.751Z,0
2017-12-17T00:37:46.315Z,0
2017-12-17T00:38:26.893Z,0
2017-12-17T00:39:07.447Z,0
2017-12-17T00:39:48.031Z,0
2017-12-17T00:40:28.606Z,0
2017-12-17T00:41:09.168Z,0
2017-12-17T00:41:49.813Z,0
2017-12-17T00:42:30.333Z,0
2017-12-17T00:43:10.906Z,0
2017-12-17T00:43:51.488Z,0
2017-12-17T00:44:32.049Z,0
2017-12-17T00:45:12.613Z,0
2017-12-17T00:45:53.226Z,0
2017-12-17T00:46:33.820Z,0
2017-12-17T00:47:14.420Z,0
2017-12-17T00:47:55.024Z,0
2017-12-17T00:48:35.667Z,0
2017-12-17T00:49:16.276Z,0
2017-12-17T00:49:56.853Z,0
2017-12-17T00:50:37.418Z,0
2017-12-17T00:51:17.985Z,0
2017-12-17T00:51:58.555Z,0
2017-12-17T00:52:39.141Z,0
2017-12-17T00:53:19.712Z,0
2017-12-17T00:54:00.297Z,0
2017-12-17T00:54:40.893Z,0
2017-12-17T00:55:21.454Z,0
2017-12-17T00:56:02.051Z,0
2017-12-17T00:56:42.616Z,0
2017-12-17T00:57:23.239Z,0
2017-12-17T00:58:03.821Z,0
2017-12-17T00:58:44.435Z,0
2017-12-17T00:59:24.994Z,0
2017-12-17T01:00:05.561Z,0
2017-12-17T01:00:46.118Z,0
2017-12-17T01:01:26.686Z,0
2017-12-17T01:02:07.296Z,0
2017-12-17T01:02:47.869Z,0
2017-12-17T01:03:28.437Z,0
2017-12-17T01:04:09.015Z,0
2017-12-17T01:04:49.582Z,0
2017-12-17T01:05:30.153Z,0
2017-12-17T01:06:10.747Z,0
2017-12-17T01:06:51.317Z,0
2017-12-17T01:07:31.931Z,0
2017-12-17T01:08:12.500Z,0
2017-12-17T01:08:53.071Z,0
2017-12-17T01:09:33.658Z,0
2017-12-17T01:10:14.229Z,0
2017-12-17T01:10:54.805Z,0
2017-12-17T01:11:35.415Z,0
2017-12-17T01:12:15.971Z,0
2017-12-17T01:12:56.537Z,0
2017-12-17T01:13:37.129Z,0
2017-12-17T01:14:17.708Z,0
2017-12-17T01:14:58.289Z,0
2017-12-17T01:15:38.894Z,0
2017-12-17T01:16:19.467Z,0
2017-12-17T01:17:00.051Z,0
2017-12-17T01:17:40.628Z,0
2017-12-17T01:18:21.191Z,0
2017-12-17T01:19:01.762Z,0
2017-12-17T01:19:42.344Z,0
2017-12-17T01:20:22.929Z,0
2017-12-17T01:21:03.510Z,0
2017-12-17T01:21:44.117Z,0
2017-12-17T01:22:24.690Z,0
2017-12-17T01:23:05.252Z,0
2017-12-17T01:23:45.805Z,0
2017-12-17T01:24:26.378Z,0
2017-12-17T01:25:06.956Z,0
2017-12-17T01:25:47.536Z,0
2017-12-17T01:26:28.115Z,0
2017-12-17T01:27:08.704Z,0
2017-12-17T01:27:49.275Z,0
2017-12-17T01:28:29.852Z,0
2017-12-17T01:29:10.422Z,0
2017-12-17T01:29:50.985Z,0
2017-12-17T01:30:31.558Z,0
2017-12-17T01:31:12.133Z,0
2017-12-17T01:31:52.699Z,0
2017-12-17T01:32:33.262Z,0
2017-12-17T01:33:13.833Z,0
2017-12-17T01:33:54.409Z,0
2017-12-17T01:34:34.949Z,0
2017-12-17T01:35:15.531Z,0
2017-12-17T01:35:56.112Z,0
2017-12-17T01:36:36.679Z,0
2017-12-17T01:37:17.244Z,0
2017-12-17T01:37:57.828Z,0
2017-12-17T01:38:38.392Z,0
2017-12-17T01:39:18.978Z,0
2017-12-17T01:39:59.549Z,0
2017-12-17T01:40:40.112Z,0
2017-12-17T01:41:20.702Z,0
2017-12-17T01:42:01.291Z,0
2017-12-17T01:42:41.894Z,0
2017-12-17T01:43:22.492Z,0
2017-12-17T01:44:03.064Z,0
2017-12-17T01:44:43.630Z,0
2017-12-17T01:45:24.202Z,0
2017-12-17T01:46:04.771Z,0
2017-12-17T01:46:45.343Z,0
2017-12-17T01:47:25.912Z,0
2017-12-17T01:48:06.476Z,0
2017-12-17T01:48:47.087Z,0
2017-12-17T01:49:27.663Z,0
2017-12-17T01:50:08.261Z,0
2017-12-17T01:50:48.825Z,0
2017-12-17T01:51:29.395Z,0
2017-12-17T01:52:09.968Z,0
2017-12-17T01:52:50.572Z,0
2017-12-17T01:53:31.141Z,0
2017-12-17T01:54:11.708Z,0
2017-12-17T01:54:52.268Z,0
2017-12-17T01:55:32.838Z,0
2017-12-17T01:56:13.410Z,0
2017-12-17T01:56:54.711Z,0
2017-12-17T01:57:35.292Z,0
2017-12-17T01:58:15.865Z,0
2017-12-17T01:58:56.437Z,0
2017-12-17T01:59:37.045Z,0
2017-12-17T02:00:17.659Z,0
2017-12-17T02:00:58.236Z,0
2017-12-17T02:01:38.804Z,0
2017-12-17T02:02:19.388Z,0
2017-12-17T02:02:59.967Z,0
2017-12-17T02:03:40.529Z,0
2017-12-17T02:04:21.113Z,0
2017-12-17T02:05:01.745Z,0
2017-12-17T02:05:42.314Z,0
2017-12-17T02:06:22.890Z,0
2017-12-17T02:07:03.473Z,0
2017-12-17T02:07:44.039Z,0
2017-12-17T02:08:24.598Z,0
2017-12-17T02:09:05.167Z,0
2017-12-17T02:09:45.724Z,0
2017-12-17T02:10:26.278Z,0
2017-12-17T02:11:06.829Z,0
2017-12-17T02:11:47.386Z,0
2017-12-17T02:12:27.944Z,0
2017-12-17T02:13:08.518Z,0
2017-12-17T02:13:49.094Z,0
2017-12-17T02:14:29.655Z,0
2017-12-17T02:15:10.218Z,0
2017-12-17T02:15:50.787Z,0
2017-12-17T02:16:31.345Z,0
2017-12-17T02:17:11.910Z,0
2017-12-17T02:17:52.487Z,0
2017-12-17T02:18:33.054Z,0
2017-12-17T02:19:13.607Z,0
2017-12-17T02:19:54.195Z,0
2017-12-17T02:20:34.775Z,0
2017-12-17T02:21:15.345Z,0
2017-12-17T02:21:55.908Z,0
2017-12-17T02:22:36.459Z,0
2017-12-17T02:23:17.050Z,0
2017-12-17T02:23:57.616Z,0
2017-12-17T02:24:38.174Z,0
2017-12-17T02:25:18.765Z,0
2017-12-17T02:25:59.353Z,0
2017-12-17T02:26:39.915Z,0
2017-12-17T02:27:20.470Z,0
2017-12-17T02:28:01.036Z,0
2017-12-17T02:28:41.596Z,0
2017-12-17T02:29:22.173Z,0
2017-12-17T02:30:02.732Z,0
2017-12-17T02:30:43.353Z,0
2017-12-17T02:31:23.914Z,0
2017-12-17T02:32:04.506Z,0
2017-12-17T02:32:45.066Z,0
2017-12-17T02:33:25.697Z,0
2017-12-17T02:34:06.268Z,0
2017-12-17T02:34:46.825Z,0
2017-12-17T02:35:27.397Z,0
2017-12-17T02:36:07.964Z,0
2017-12-17T02:36:48.571Z,0
2017-12-17T02:37:29.140Z,0
2017-12-17T02:38:09.754Z,0
2017-12-17T02:38:50.315Z,0
2017-12-17T02:39:30.891Z,0
2017-12-17T02:40:11.450Z,0
2017-12-17T02:40:52.021Z,0
2017-12-17T02:41:32.597Z,0
2017-12-17T02:42:13.163Z,0
2017-12-17T02:42:53.724Z,0
2017-12-17T02:43:34.313Z,0
2017-12-17T02:44:14.899Z,0
2017-12-17T02:44:55.456Z,0
2017-12-17T02:45:36.040Z,0
2017-12-17T02:46:16.654Z,0
2017-12-17T02:46:57.238Z,0
2017-12-17T02:47:37.816Z,0
2017-12-17T02:48:18.380Z,0
2017-12-17T02:48:58.942Z,0
2017-12-17T02:49:39.506Z,0
2017-12-17T02:50:20.105Z,0
2017-12-17T02:51:00.689Z,0
2017-12-17T02:51:41.233Z,0
2017-12-17T02:52:21.801Z,0
2017-12-17T02:53:02.399Z,0
2017-12-17T02:53:42.980Z,0
2017-12-17T02:54:23.547Z,0
2017-12-17T02:55:04.124Z,0
2017-12-17T02:55:44.693Z,0
2017-12-17T02:56:25.249Z,0
2017-12-17T02:57:05.811Z,0
2017-12-17T02:57:46.377Z,0
2017-12-17T02:58:26.929Z,0
2017-12-17T02:59:07.512Z,0
2017-12-17T02:59:48.076Z,0
2017-12-17T03:00:28.657Z,0
2017-12-17T03:01:09.209Z,0
2017-12-17T03:01:49.768Z,0
2017-12-17T03:02:30.336Z,0
2017-12-17T03:03:10.910Z,0
2017-12-17T03:03:51.478Z,0
2017-12-17T03:04:32.040Z,0
2017-12-17T03:05:12.613Z,0
2017-12-17T03:05:53.184Z,0
2017-12-17T03:06:33.760Z,0
2017-12-17T03:07:14.329Z,0
2017-12-17T03:07:54.898Z,0
2017-12-17T03:08:35.471Z,0
2017-12-17T03:09:16.028Z,0
2017-12-17T03:09:56.621Z,0
2017-12-17T03:10:37.226Z,0
2017-12-17T03:11:17.797Z,0
2017-12-17T03:11:58.371Z,0
2017-12-17T03:12:38.946Z,0
2017-12-17T03:13:19.534Z,0
2017-12-17T03:14:00.115Z,0
2017-12-17T03:14:40.686Z,0
2017-12-17T03:15:21.266Z,0
2017-12-17T03:16:01.837Z,0
2017-12-17T03:16:42.392Z,0
2017-12-17T03:17:22.945Z,0
2017-12-17T03:18:03.580Z,0
2017-12-17T03:18:44.163Z,0
2017-12-17T03:19:24.742Z,0
2017-12-17T03:20:05.323Z,0
2017-12-17T03:20:45.938Z,0
2017-12-17T03:21:26.598Z,0
2017-12-17T03:22:07.051Z,0
2017-12-17T03:22:47.615Z,0
2017-12-17T03:23:28.182Z,0
2017-12-17T03:24:08.745Z,0
2017-12-17T03:24:49.341Z,0
2017-12-17T03:25:29.911Z,0
2017-12-17T03:26:10.483Z,0
2017-12-17T03:26:51.052Z,0
2017-12-17T03:27:31.618Z,0
2017-12-17T03:28:12.215Z,0
2017-12-17T03:28:52.798Z,0
2017-12-17T03:29:33.362Z,0
2017-12-17T03:30:13.940Z,0
2017-12-17T03:30:54.519Z,0
2017-12-17T03:31:35.101Z,0
2017-12-17T03:32:15.719Z,0
2017-12-17T03:32:56.226Z,0
2017-12-17T03:33:36.797Z,0
2017-12-17T03:34:17.383Z,0
2017-12-17T03:34:57.955Z,0
2017-12-17T03:35:38.534Z,0
2017-12-17T03:36:19.137Z,0
2017-12-17T03:36:59.702Z,0
2017-12-17T03:37:40.276Z,0
2017-12-17T03:38:20.858Z,0
2017-12-17T03:39:01.430Z,0
2017-12-17T03:39:41.997Z,0
2017-12-17T03:40:22.574Z,0
2017-12-17T03:41:03.163Z,0
2017-12-17T03:41:43.734Z,0
2017-12-17T03:42:24.293Z,0
2017-12-17T03:43:04.883Z,0
2017-12-17T03:43:45.450Z,0
2017-12-17T03:44:26.025Z,0
2017-12-17T03:45:06.584Z,0
2017-12-17T03:45:47.162Z,0
2017-12-17T03:46:27.736Z,0
2017-12-17T03:47:08.300Z,0
2017-12-17T03:47:48.874Z,0
2017-12-17T03:48:29.433Z,0
2017-12-17T03:49:10.011Z,0
2017-12-17T03:49:52.480Z,0
2017-12-17T03:50:33.061Z,0
2017-12-17T03:51:13.631Z,0
2017-12-17T03:51:54.191Z,0
2017-12-17T03:52:34.789Z,0
2017-12-17T03:53:15.368Z,0
2017-12-17T03:53:55.938Z,0
2017-12-17T03:54:36.529Z,0
2017-12-17T03:55:17.090Z,0
2017-12-17T03:55:57.653Z,0
2017-12-17T03:56:38.236Z,0
2017-12-17T03:57:18.820Z,0
2017-12-17T03:57:59.383Z,0
2017-12-17T03:58:39.962Z,0
2017-12-17T03:59:20.540Z,0
2017-12-17T04:00:01.102Z,0
2017-12-17T04:00:41.683Z,0
2017-12-17T04:01:22.245Z,0
2017-12-17T04:02:02.817Z,0
2017-12-17T04:02:43.382Z,0
2017-12-17T04:03:23.956Z,0
2017-12-17T04:04:04.533Z,0
2017-12-17T04:04:45.104Z,0
2017-12-17T04:05:25.677Z,0
2017-12-17T04:06:06.256Z,0
2017-12-17T04:06:46.839Z,0
2017-12-17T04:07:27.417Z,0
2017-12-17T04:08:08.006Z,0
2017-12-17T04:08:48.556Z,0
2017-12-17T04:09:29.132Z,0
2017-12-17T04:10:09.684Z,0
2017-12-17T04:10:50.264Z,0
2017-12-17T04:11:30.831Z,0
2017-12-17T04:12:11.412Z,0
2017-12-17T04:12:51.989Z,0
2017-12-17T04:13:32.555Z,0
2017-12-17T04:14:13.124Z,0
2017-12-17T04:14:53.676Z,0
2017-12-17T04:15:34.265Z,0
2017-12-17T04:16:14.830Z,0
2017-12-17T04:16:55.410Z,0
2017-12-17T04:17:35.986Z,0
2017-12-17T04:18:16.551Z,0
2017-12-17T04:18:57.131Z,0
2017-12-17T04:19:37.688Z,0
2017-12-17T04:20:18.277Z,0
2017-12-17T04:20:58.855Z,0
2017-12-17T04:21:39.425Z,0
2017-12-17T04:22:19.996Z,0
2017-12-17T04:23:00.566Z,0
2017-12-17T04:23:41.132Z,0
2017-12-17T04:24:21.733Z,0
2017-12-17T04:25:02.314Z,0
2017-12-17T04:25:42.906Z,0
2017-12-17T04:26:23.514Z,0
2017-12-17T04:27:04.078Z,0
2017-12-17T04:27:44.659Z,0
2017-12-17T04:28:25.225Z,0
2017-12-17T04:29:05.808Z,0
2017-12-17T04:29:46.397Z,0
2017-12-17T04:30:26.984Z,0
2017-12-17T04:31:07.588Z,0
2017-12-17T04:31:48.184Z,0
2017-12-17T04:32:28.758Z,0
2017-12-17T04:33:09.324Z,0
2017-12-17T04:33:49.886Z,0
2017-12-17T04:34:30.459Z,0
2017-12-17T04:35:11.031Z,0
2017-12-17T04:35:51.622Z,0
2017-12-17T04:36:32.205Z,0
2017-12-17T04:37:12.775Z,0
2017-12-17T04:37:53.335Z,0
2017-12-17T04:38:33.920Z,0
2017-12-17T04:39:14.487Z,0
2017-12-17T04:39:55.074Z,0
2017-12-17T04:40:35.641Z,0
2017-12-17T04:41:16.206Z,0
2017-12-17T04:41:56.780Z,0
2017-12-17T04:42:37.374Z,0
2017-12-17T04:43:17.962Z,0
2017-12-17T04:43:58.524Z,0
2017-12-17T04:44:39.108Z,0
2017-12-17T04:45:19.677Z,0
2017-12-17T04:46:00.261Z,0
2017-12-17T04:46:40.837Z,0
2017-12-17T04:47:21.416Z,0
2017-12-17T04:48:01.997Z,0
2017-12-17T04:48:42.572Z,0
2017-12-17T04:49:23.119Z,0
2017-12-17T04:50:03.729Z,0
2017-12-17T04:50:44.299Z,0
2017-12-17T04:51:24.899Z,0
2017-12-17T04:52:05.487Z,0
2017-12-17T04:52:46.083Z,0
2017-12-17T04:53:26.648Z,0
2017-12-17T04:54:07.251Z,0
2017-12-17T04:56:20.131Z,0
2017-12-17T04:57:00.697Z,0
2017-12-17T04:57:41.270Z,0
2017-12-17T04:58:21.844Z,0
2017-12-17T04:59:02.397Z,0
2017-12-17T04:59:42.999Z,0
2017-12-17T05:00:23.565Z,0
2017-12-17T05:01:04.138Z,0
2017-12-17T05:01:44.744Z,0
2017-12-17T05:02:25.303Z,0
2017-12-17T05:03:05.869Z,0
2017-12-17T05:03:46.478Z,0
2017-12-17T05:04:27.064Z,0
2017-12-17T05:05:07.649Z,0
2017-12-17T05:05:49.166Z,0
2017-12-17T05:06:29.760Z,0
2017-12-17T05:07:10.343Z,0
2017-12-17T05:07:50.932Z,0
2017-12-17T05:08:31.490Z,0
2017-12-17T05:09:12.632Z,0
2017-12-17T05:09:53.203Z,0
2017-12-17T05:10:33.759Z,0
2017-12-17T05:11:14.384Z,0
2017-12-17T05:11:54.968Z,0
2017-12-17T05:12:35.563Z,0
2017-12-17T05:13:16.182Z,0
2017-12-17T05:13:56.792Z,0
2017-12-17T05:14:37.373Z,0
2017-12-17T05:15:17.962Z,0
2017-12-17T05:15:58.523Z,0
2017-12-17T05:16:39.084Z,0
2017-12-17T05:17:19.663Z,0
2017-12-17T05:18:00.293Z,0
2017-12-17T05:18:40.863Z,0
2017-12-17T05:19:21.439Z,0
2017-12-17T05:20:02.048Z,0
2017-12-17T05:20:42.622Z,0
2017-12-17T05:21:23.226Z,0
2017-12-17T05:22:03.796Z,0
2017-12-17T05:22:44.364Z,0
2017-12-17T05:23:24.939Z,0
2017-12-17T05:24:05.527Z,0
2017-12-17T05:24:46.127Z,0
2017-12-17T05:25:26.671Z,0
2017-12-17T05:26:07.249Z,0
2017-12-17T05:26:48.046Z,0
2017-12-17T05:27:28.718Z,4
2017-12-17T05:28:09.209Z,4
2017-12-17T05:28:49.761Z,4
2017-12-17T05:29:30.352Z,4
2017-12-17T05:30:10.937Z,4
2017-12-17T05:30:51.551Z,4
2017-12-17T05:31:32.130Z,4
2017-12-17T05:32:12.722Z,4
2017-12-17T05:32:53.294Z,4
2017-12-17T05:33:34.739Z,4
2017-12-17T05:34:15.386Z,4
2017-12-17T05:34:56.552Z,4
2017-12-17T05:35:37.153Z,4
2017-12-17T05:36:17.733Z,4
2017-12-17T05:36:58.458Z,4
2017-12-17T05:37:40.102Z,4
2017-12-17T05:38:21.154Z,4
2017-12-17T05:39:01.749Z,4
2017-12-17T05:39:42.321Z,4
2017-12-17T05:40:22.900Z,4
2017-12-17T05:41:03.469Z,4
2017-12-17T05:41:44.050Z,4
2017-12-17T05:42:24.615Z,4
2017-12-17T05:43:05.207Z,4
2017-12-17T05:43:45.754Z,4
2017-12-17T05:44:26.362Z,4
2017-12-17T05:45:06.944Z,4
2017-12-17T05:45:47.948Z,4
2017-12-17T05:46:28.521Z,4
2017-12-17T05:47:09.105Z,4
2017-12-17T05:47:49.676Z,4
2017-12-17T05:48:30.275Z,4
2017-12-17T05:49:10.851Z,4
2017-12-17T05:49:51.419Z,4
2017-12-17T05:50:31.980Z,4
2017-12-17T05:51:12.582Z,4
2017-12-17T05:51:53.165Z,4
2017-12-17T05:52:33.738Z,4
2017-12-17T05:53:14.352Z,4
2017-12-17T05:53:54.922Z,4
2017-12-17T05:54:35.507Z,4
2017-12-17T05:55:16.094Z,4
2017-12-17T05:55:56.769Z,4
2017-12-17T05:56:37.354Z,4
2017-12-17T05:57:17.970Z,4
2017-12-17T05:57:58.558Z,4
2017-12-17T05:58:39.151Z,4
2017-12-17T05:59:19.814Z,4
2017-12-17T06:00:00.416Z,4
2017-12-17T06:00:41.034Z,4
2017-12-17T06:01:21.635Z,4
2017-12-17T06:02:02.316Z,4
2017-12-17T06:02:42.933Z,4
2017-12-17T06:03:23.512Z,4
2017-12-17T06:04:04.107Z,4
2017-12-17T06:04:44.674Z,4
2017-12-17T06:05:25.252Z,4
2017-12-17T06:06:05.822Z,4
2017-12-17T06:06:46.397Z,4
2017-12-17T06:07:26.963Z,4
2017-12-17T06:08:07.533Z,4
2017-12-17T06:08:48.110Z,4
2017-12-17T06:09:28.693Z,4
2017-12-17T06:10:09.745Z,4
2017-12-17T06:10:50.627Z,4
2017-12-17T06:11:31.304Z,4
2017-12-17T06:12:12.054Z,4
2017-12-17T06:12:52.712Z,4
2017-12-17T06:13:33.366Z,4
2017-12-17T06:14:14.119Z,4
2017-12-17T06:14:54.679Z,4
2017-12-17T06:15:35.231Z,4
2017-12-17T06:16:15.812Z,4
2017-12-17T06:16:56.383Z,4
2017-12-17T06:17:36.951Z,4
2017-12-17T06:18:17.622Z,4
2017-12-17T06:18:58.593Z,4
2017-12-17T06:19:39.412Z,4
2017-12-17T06:20:20.379Z,4
2017-12-17T06:21:01.497Z,4
2017-12-17T06:21:42.115Z,4
2017-12-17T06:22:22.673Z,4
2017-12-17T06:23:03.405Z,4
2017-12-17T06:23:44.098Z,4
2017-12-17T06:24:24.837Z,4
2017-12-17T06:25:06.129Z,4
2017-12-17T06:25:46.939Z,4
2017-12-17T06:26:27.638Z,4
2017-12-17T06:27:08.340Z,4
2017-12-17T06:27:48.905Z,4
2017-12-17T06:28:29.728Z,4
2017-12-17T06:29:10.612Z,4
2017-12-17T06:29:51.251Z,4
2017-12-17T06:30:32.141Z,4
2017-12-17T06:31:13.256Z,4
2017-12-17T06:31:53.997Z,4
2017-12-17T06:32:34.802Z,4
2017-12-17T06:33:15.552Z,4
2017-12-17T06:33:56.382Z,4
2017-12-17T06:34:37.063Z,4
2017-12-17T06:35:17.922Z,0
2017-12-17T06:35:59.008Z,0
2017-12-17T06:36:39.723Z,0
2017-12-17T06:37:20.354Z,0
2017-12-17T06:38:00.950Z,0
2017-12-17T06:38:41.674Z,0
2017-12-17T06:39:22.272Z,0
2017-12-17T06:40:03.142Z,0
2017-12-17T06:40:43.849Z,0
2017-12-17T06:41:24.429Z,0
2017-12-17T06:42:05.010Z,0
2017-12-17T06:42:46.239Z,4
2017-12-17T06:43:27.234Z,4
2017-12-17T06:44:08.433Z,4
2017-12-17T06:44:49.512Z,4
2017-12-17T06:45:30.531Z,4
2017-12-17T06:46:11.305Z,4
2017-12-17T06:46:52.839Z,4
2017-12-17T06:47:33.679Z,4
2017-12-17T06:48:14.708Z,4
2017-12-17T06:48:55.864Z,0
2017-12-17T06:49:36.853Z,4
2017-12-17T06:50:17.527Z,4
2017-12-17T06:50:58.445Z,4
2017-12-17T06:51:39.167Z,4
2017-12-17T06:52:20.159Z,8
2017-12-17T06:53:01.599Z,4
2017-12-17T06:53:42.743Z,4
2017-12-17T06:54:23.660Z,8
2017-12-17T06:55:04.776Z,8
2017-12-17T06:55:45.626Z,4
2017-12-17T06:56:26.314Z,8
2017-12-17T06:57:07.054Z,8
2017-12-17T06:57:47.871Z,8
2017-12-17T06:58:28.674Z,8
2017-12-17T06:59:09.557Z,8
2017-12-17T06:59:50.339Z,12
2017-12-17T07:00:31.289Z,12
2017-12-17T07:01:11.971Z,8
2017-12-17T07:01:52.912Z,8
2017-12-17T07:02:33.584Z,12
2017-12-17T07:03:14.178Z,12
2017-12-17T07:03:54.778Z,16
2017-12-17T07:04:35.360Z,12
2017-12-17T07:05:15.926Z,16
2017-12-17T07:05:56.509Z,12
2017-12-17T07:06:37.080Z,16
2017-12-17T07:07:17.862Z,20
2017-12-17T07:07:58.589Z,16
2017-12-17T07:08:39.372Z,20
2017-12-17T07:09:20.280Z,24
2017-12-17T07:10:01.049Z,20
2017-12-17T07:10:41.909Z,24
2017-12-17T07:11:22.661Z,24
2017-12-17T07:12:03.505Z,24
2017-12-17T07:12:44.441Z,24
2017-12-17T07:13:25.477Z,28
2017-12-17T07:14:06.253Z,28
2017-12-17T07:14:47.099Z,28
2017-12-17T07:15:28.073Z,28
2017-12-17T07:16:08.910Z,28
2017-12-17T07:16:49.757Z,28
2017-12-17T07:17:30.753Z,28
2017-12-17T07:18:11.438Z,32
2017-12-17T07:18:52.200Z,32
2017-12-17T07:19:33.926Z,28
2017-12-17T07:20:14.699Z,32
2017-12-17T07:20:55.508Z,32
2017-12-17T07:21:36.311Z,36
2017-12-17T07:22:16.969Z,40
2017-12-17T07:22:57.641Z,44
2017-12-17T07:23:38.443Z,44
2017-12-17T07:24:19.020Z,48
2017-12-17T07:24:59.643Z,48
2017-12-17T07:25:40.215Z,52
2017-12-17T07:26:20.809Z,56
2017-12-17T07:27:01.432Z,56
2017-12-17T07:27:42.001Z,64
2017-12-17T07:28:22.604Z,68
2017-12-17T07:29:03.193Z,72
2017-12-17T07:29:43.771Z,80
2017-12-17T07:30:24.339Z,84
2017-12-17T07:31:04.951Z,88
2017-12-17T07:31:45.584Z,92
2017-12-17T07:32:26.205Z,96
2017-12-17T07:33:06.765Z,100
2017-12-17T07:33:47.361Z,108
2017-12-17T07:34:27.955Z,112
2017-12-17T07:35:08.505Z,124
2017-12-17T07:35:49.079Z,132
2017-12-17T07:36:29.662Z,140
2017-12-17T07:37:10.232Z,144
2017-12-17T07:37:51.656Z,156
2017-12-17T07:38:32.226Z,160
2017-12-17T07:39:12.808Z,168
2017-12-17T07:39:53.412Z,172
2017-12-17T07:40:33.974Z,176
2017-12-17T07:41:14.528Z,180
2017-12-17T07:41:55.095Z,180
2017-12-17T07:42:35.655Z,180
2017-12-17T07:43:16.222Z,180
2017-12-17T07:43:56.812Z,188
2017-12-17T07:44:37.370Z,196
2017-12-17T07:45:17.945Z,208
2017-12-17T07:45:58.547Z,220
2017-12-17T07:46:39.125Z,216
2017-12-17T07:47:19.684Z,240
2017-12-17T07:48:00.277Z,248
2017-12-17T07:48:40.836Z,264
2017-12-17T07:49:21.415Z,272
2017-12-17T07:50:01.977Z,280
2017-12-17T07:50:42.536Z,304
2017-12-17T07:51:23.096Z,320
2017-12-17T07:52:03.719Z,340
2017-12-17T07:52:44.353Z,356
2017-12-17T07:53:24.941Z,368
2017-12-17T07:54:05.534Z,372
2017-12-17T07:54:46.118Z,352
2017-12-17T07:55:26.714Z,316
2017-12-17T07:56:07.355Z,268
2017-12-17T07:56:47.906Z,228
2017-12-17T07:57:28.488Z,204
2017-12-17T07:58:09.064Z,204
2017-12-17T07:58:49.623Z,184
2017-12-17T07:59:30.194Z,164
2017-12-17T08:00:11.108Z,148
2017-12-17T08:00:51.735Z,136
2017-12-17T08:01:32.346Z,116
2017-12-17T08:02:12.923Z,88
2017-12-17T08:02:53.531Z,84
2017-12-17T08:03:34.127Z,88
2017-12-17T08:04:14.702Z,92
2017-12-17T08:04:55.330Z,96
2017-12-17T08:05:35.917Z,108
2017-12-17T08:06:16.497Z,132
2017-12-17T08:06:57.144Z,152
2017-12-17T08:07:37.706Z,180
2017-12-17T08:08:18.332Z,208
2017-12-17T08:08:58.955Z,232
2017-12-17T08:09:39.534Z,252
2017-12-17T08:10:20.163Z,268
2017-12-17T08:11:01.048Z,284
2017-12-17T08:11:41.684Z,300
2017-12-17T08:12:22.250Z,332
2017-12-17T08:13:03.343Z,392
2017-12-17T08:13:43.645Z,472
2017-12-17T08:14:24.223Z,544
2017-12-17T08:15:04.808Z,616
2017-12-17T08:15:45.441Z,640
2017-12-17T08:16:26.088Z,640
2017-12-17T08:17:06.666Z,660
2017-12-17T08:17:47.284Z,656
2017-12-17T08:18:27.865Z,612
2017-12-17T08:19:08.439Z,584
2017-12-17T08:19:49.111Z,640
2017-12-17T08:20:29.719Z,708
2017-12-17T08:21:10.316Z,772
2017-12-17T08:21:50.920Z,868
2017-12-17T08:22:31.576Z,988
2017-12-17T08:23:12.293Z,996
2017-12-17T08:23:52.873Z,1024
2017-12-17T08:24:33.470Z,1004
2017-12-17T08:25:14.077Z,972
2017-12-17T08:25:54.707Z,1108
2017-12-17T08:26:35.295Z,1044
2017-12-17T08:27:15.906Z,972
2017-12-17T08:27:56.512Z,924
2017-12-17T08:28:37.163Z,828
2017-12-17T08:29:17.780Z,684
2017-12-17T08:29:58.397Z,560
2017-12-17T08:30:39.081Z,512
2017-12-17T08:31:19.670Z,592
2017-12-17T08:32:00.271Z,640
2017-12-17T08:32:40.851Z,624
2017-12-17T08:33:21.547Z,700
2017-12-17T08:34:02.115Z,700
2017-12-17T08:34:42.694Z,584
2017-12-17T08:35:23.311Z,508
2017-12-17T08:36:03.923Z,540
2017-12-17T08:36:44.519Z,512
2017-12-17T08:37:25.120Z,448
2017-12-17T08:38:05.715Z,444
2017-12-17T08:38:46.310Z,400
2017-12-17T08:39:26.905Z,384
2017-12-17T08:40:07.500Z,372
2017-12-17T08:40:48.095Z,336
2017-12-17T08:41:28.675Z,324
2017-12-17T08:42:09.225Z,364
2017-12-17T08:42:49.923Z,404
2017-12-17T08:43:30.521Z,392
2017-12-17T08:44:11.138Z,436
2017-12-17T08:44:51.743Z,496
2017-12-17T08:45:32.339Z,524
2017-12-17T08:46:12.936Z,620
2017-12-17T08:46:53.534Z,676
2017-12-17T08:47:34.148Z,668
2017-12-17T08:48:14.759Z,664
2017-12-17T08:48:55.367Z,664
2017-12-17T08:49:36.188Z,620
2017-12-17T08:50:17.194Z,552
2017-12-17T08:50:58.056Z,664
2017-12-17T08:51:38.702Z,836
2017-12-17T08:52:19.559Z,864
2017-12-17T08:53:00.182Z,876
2017-12-17T08:53:41.163Z,832
2017-12-17T08:54:22.112Z,832
2017-12-17T08:55:02.878Z,872
2017-12-17T08:55:43.759Z,900
2017-12-17T08:56:24.352Z,992
2017-12-17T08:57:05.333Z,1024
2017-12-17T08:57:46.319Z,1032
2017-12-17T08:58:27.097Z,1036
2017-12-17T08:59:08.051Z,952
2017-12-17T08:59:48.627Z,1088
2017-12-17T09:00:29.248Z,1400
2017-12-17T09:01:10.179Z,1500
2017-12-17T09:01:51.421Z,1300
2017-12-17T09:02:32.188Z,1076
2017-12-17T09:03:13.054Z,1056
2017-12-17T09:03:54.001Z,1144
2017-12-17T09:04:35.824Z,1168
2017-12-17T09:05:17.017Z,1224
2017-12-17T09:05:58.014Z,1560
2017-12-17T09:06:38.900Z,1332
2017-12-17T09:07:19.609Z,1340
2017-12-17T09:08:00.202Z,1392
2017-12-17T09:08:40.822Z,1440
2017-12-17T09:09:21.433Z,1628
2017-12-17T09:10:02.055Z,1612
2017-12-17T09:10:42.643Z,1580
2017-12-17T09:11:23.251Z,1512
2017-12-17T09:12:03.892Z,1316
2017-12-17T09:12:44.442Z,1400
2017-12-17T09:13:25.051Z,1416
2017-12-17T09:14:05.649Z,1460
2017-12-17T09:14:46.362Z,1516
2017-12-17T09:15:26.956Z,1476
2017-12-17T09:16:07.560Z,1248
2017-12-17T09:16:48.167Z,1164
2017-12-17T09:17:28.766Z,1260
2017-12-17T09:18:09.366Z,1348
2017-12-17T09:18:49.996Z,1424
2017-12-17T09:19:30.593Z,1356
2017-12-17T09:20:11.253Z,1392
2017-12-17T09:20:51.828Z,1348
2017-12-17T09:21:32.413Z,1324
2017-12-17T09:22:13.019Z,1436
2017-12-17T09:22:53.633Z,1532
2017-12-17T09:23:34.226Z,1604
2017-12-17T09:24:14.806Z,1752
2017-12-17T09:24:55.372Z,1884
2017-12-17T09:25:35.960Z,2028
2017-12-17T09:26:16.550Z,2216
2017-12-17T09:26:57.162Z,2424
2017-12-17T09:27:37.733Z,2600
2017-12-17T09:28:18.351Z,2788
2017-12-17T09:28:58.947Z,2512
2017-12-17T09:29:39.579Z,2196
2017-12-17T09:30:20.166Z,1944
2017-12-17T09:31:00.757Z,1504
2017-12-17T09:31:41.344Z,1216
2017-12-17T09:32:21.936Z,1172
2017-12-17T09:33:02.551Z,1108
2017-12-17T09:33:43.133Z,988
2017-12-17T09:34:23.731Z,908
2017-12-17T09:35:04.315Z,852
2017-12-17T09:35:44.914Z,704
2017-12-17T09:36:25.490Z,664
2017-12-17T09:37:06.092Z,636
2017-12-17T09:37:46.731Z,588
2017-12-17T09:38:27.295Z,576
2017-12-17T09:39:07.885Z,592
2017-12-17T09:39:48.545Z,584
2017-12-17T09:40:29.146Z,516
2017-12-17T09:41:09.720Z,512
2017-12-17T09:41:50.314Z,536
2017-12-17T09:42:30.887Z,572
2017-12-17T09:43:11.480Z,612
2017-12-17T09:43:52.081Z,620
2017-12-17T09:44:32.643Z,664
2017-12-17T09:45:13.216Z,692
2017-12-17T09:45:53.805Z,640
2017-12-17T09:46:34.386Z,608
2017-12-17T09:47:14.957Z,580
2017-12-17T09:47:55.539Z,568
2017-12-17T09:48:36.117Z,580
2017-12-17T09:49:16.698Z,540
2017-12-17T09:49:57.273Z,516